sensor_id;sensor_type;location;lat;lon;timestamp;pressure;altitude;pressure_sealevel;temperature;humidity
52735;BME280;38631;47.572;10.704;2023-12-22T00:00:26;91202.13;;;4.83;100.00
52735;BME280;38631;47.572;10.704;2023-12-22T00:02:51;91228.75;;;4.59;100.00
52735;BME280;38631;47.572;10.704;2023-12-22T00:05:17;91227.09;;;4.40;100.00
52735;BME280;38631;47.572;10.704;2023-12-22T00:07:42;91226.31;;;4.40;100.00
52735;BME280;38631;47.572;10.704;2023-12-22T00:10:08;91223.03;;;4.11;100.00
52735;BME280;38631;47.572;10.704;2023-12-22T00:12:34;91191.63;;;4.06;100.00
52735;BME280;38631;47.572;10.704;2023-12-22T00:14:59;91185.16;;;4.35;100.00
52735;BME280;38631;47.572;10.704;2023-12-22T00:17:25;91192.06;;;4.53;100.00
52735;BME280;38631;47.572;10.704;2023-12-22T00:19:50;91203.56;;;4.35;100.00
52735;BME280;38631;47.572;10.704;2023-12-22T00:22:16;91211.97;;;4.46;100.00
52735;BME280;38631;47.572;10.704;2023-12-22T00:24:41;91203.00;;;4.69;100.00
52735;BME280;38631;47.572;10.704;2023-12-22T00:27:06;91191.31;;;4.84;100.00
52735;BME280;38631;47.572;10.704;2023-12-22T00:29:32;91196.59;;;4.93;100.00
52735;BME280;38631;47.572;10.704;2023-12-22T00:32:01;91188.72;;;4.93;100.00
52735;BME280;38631;47.572;10.704;2023-12-22T00:34:26;91175.34;;;5.12;100.00
52735;BME280;38631;47.572;10.704;2023-12-22T00:36:52;91162.47;;;5.02;100.00
52735;BME280;38631;47.572;10.704;2023-12-22T00:39:17;91176.69;;;5.01;100.00
52735;BME280;38631;47.572;10.704;2023-12-22T00:41:42;91187.41;;;5.13;100.00
52735;BME280;38631;47.572;10.704;2023-12-22T00:44:08;91183.22;;;5.12;100.00
52735;BME280;38631;47.572;10.704;2023-12-22T00:46:33;91163.72;;;5.04;100.00
52735;BME280;38631;47.572;10.704;2023-12-22T00:48:58;91151.47;;;5.00;100.00
52735;BME280;38631;47.572;10.704;2023-12-22T00:51:24;91164.34;;;5.10;100.00
52735;BME280;38631;47.572;10.704;2023-12-22T00:53:49;91155.47;;;4.97;100.00
52735;BME280;38631;47.572;10.704;2023-12-22T00:56:15;91134.56;;;4.92;100.00
52735;BME280;38631;47.572;10.704;2023-12-22T00:58:40;91133.38;;;5.07;100.00
52735;BME280;38631;47.572;10.704;2023-12-22T01:01:06;91126.53;;;4.97;100.00
52735;BME280;38631;47.572;10.704;2023-12-22T01:03:31;91166.63;;;5.03;100.00
52735;BME280;38631;47.572;10.704;2023-12-22T01:05:56;91143.53;;;4.91;100.00
52735;BME280;38631;47.572;10.704;2023-12-22T01:08:22;91143.88;;;4.98;100.00
52735;BME280;38631;47.572;10.704;2023-12-22T01:10:47;91158.66;;;4.85;100.00
52735;BME280;38631;47.572;10.704;2023-12-22T01:13:13;91117.97;;;4.83;100.00
52735;BME280;38631;47.572;10.704;2023-12-22T01:15:38;91172.28;;;4.87;100.00
52735;BME280;38631;47.572;10.704;2023-12-22T01:18:04;91200.91;;;4.89;100.00
52735;BME280;38631;47.572;10.704;2023-12-22T01:20:30;91195.16;;;4.78;100.00
52735;BME280;38631;47.572;10.704;2023-12-22T01:22:55;91207.03;;;4.75;100.00
52735;BME280;38631;47.572;10.704;2023-12-22T01:25:20;91207.88;;;4.85;100.00
52735;BME280;38631;47.572;10.704;2023-12-22T01:27:46;91236.19;;;4.88;100.00
52735;BME280;38631;47.572;10.704;2023-12-22T01:30:12;91234.72;;;4.73;100.00
52735;BME280;38631;47.572;10.704;2023-12-22T01:32:38;91224.06;;;4.78;100.00
52735;BME280;38631;47.572;10.704;2023-12-22T01:35:03;91241.06;;;4.72;100.00
52735;BME280;38631;47.572;10.704;2023-12-22T01:37:34;91258.22;;;4.69;100.00
52735;BME280;38631;47.572;10.704;2023-12-22T01:40:00;91272.25;;;4.65;100.00
52735;BME280;38631;47.572;10.704;2023-12-22T01:42:25;91287.50;;;4.76;100.00
52735;BME280;38631;47.572;10.704;2023-12-22T01:44:50;91285.69;;;4.86;100.00
52735;BME280;38631;47.572;10.704;2023-12-22T01:47:16;91288.03;;;4.87;100.00
52735;BME280;38631;47.572;10.704;2023-12-22T01:49:41;91297.06;;;5.04;100.00
52735;BME280;38631;47.572;10.704;2023-12-22T01:52:07;91278.31;;;4.96;100.00
52735;BME280;38631;47.572;10.704;2023-12-22T01:54:33;91267.59;;;4.84;100.00
52735;BME280;38631;47.572;10.704;2023-12-22T01:56:59;91275.94;;;4.86;100.00
52735;BME280;38631;47.572;10.704;2023-12-22T01:59:25;91288.03;;;4.87;100.00
52735;BME280;38631;47.572;10.704;2023-12-22T02:01:52;91301.34;;;4.91;100.00
52735;BME280;38631;47.572;10.704;2023-12-22T02:04:18;91304.69;;;4.83;100.00
52735;BME280;38631;47.572;10.704;2023-12-22T02:06:43;91300.66;;;4.76;100.00
52735;BME280;38631;47.572;10.704;2023-12-22T02:09:09;91301.69;;;4.75;100.00
52735;BME280;38631;47.572;10.704;2023-12-22T02:11:38;91289.44;;;4.71;100.00
52735;BME280;38631;47.572;10.704;2023-12-22T02:14:04;91306.22;;;4.84;100.00
52735;BME280;38631;47.572;10.704;2023-12-22T02:18:59;91321.84;;;4.80;100.00
52735;BME280;38631;47.572;10.704;2023-12-22T02:21:29;91319.22;;;4.58;100.00
52735;BME280;38631;47.572;10.704;2023-12-22T02:23:54;91321.44;;;4.28;100.00
52735;BME280;38631;47.572;10.704;2023-12-22T02:26:25;91304.75;;;3.96;100.00
52735;BME280;38631;47.572;10.704;2023-12-22T02:28:53;91324.78;;;4.06;100.00
52735;BME280;38631;47.572;10.704;2023-12-22T02:31:40;91318.03;;;4.27;100.00
52735;BME280;38631;47.572;10.704;2023-12-22T02:34:13;91315.28;;;4.32;100.00
52735;BME280;38631;47.572;10.704;2023-12-22T02:36:39;91307.47;;;4.41;100.00
52735;BME280;38631;47.572;10.704;2023-12-22T02:39:07;91301.53;;;4.49;100.00
52735;BME280;38631;47.572;10.704;2023-12-22T02:41:34;91320.03;;;4.44;100.00
52735;BME280;38631;47.572;10.704;2023-12-22T02:44:00;91295.28;;;4.45;100.00
52735;BME280;38631;47.572;10.704;2023-12-22T02:46:26;91283.69;;;4.46;100.00
52735;BME280;38631;47.572;10.704;2023-12-22T02:48:51;91288.25;;;4.54;100.00
52735;BME280;38631;47.572;10.704;2023-12-22T02:51:16;91284.13;;;4.62;100.00
52735;BME280;38631;47.572;10.704;2023-12-22T02:53:42;91274.53;;;4.58;100.00
52735;BME280;38631;47.572;10.704;2023-12-22T02:56:07;91276.91;;;4.68;100.00
52735;BME280;38631;47.572;10.704;2023-12-22T02:58:32;91289.81;;;4.55;100.00
52735;BME280;38631;47.572;10.704;2023-12-22T03:00:58;91263.84;;;4.54;100.00
52735;BME280;38631;47.572;10.704;2023-12-22T03:03:23;91286.66;;;4.67;100.00
52735;BME280;38631;47.572;10.704;2023-12-22T03:05:48;91283.19;;;4.58;100.00
52735;BME280;38631;47.572;10.704;2023-12-22T03:08:14;91280.38;;;4.77;100.00
52735;BME280;38631;47.572;10.704;2023-12-22T03:10:39;91283.59;;;4.74;100.00
52735;BME280;38631;47.572;10.704;2023-12-22T03:13:05;91285.75;;;4.94;99.92
52735;BME280;38631;47.572;10.704;2023-12-22T03:15:30;91247.00;;;4.86;98.28
52735;BME280;38631;47.572;10.704;2023-12-22T03:17:55;91246.84;;;4.83;98.75
52735;BME280;38631;47.572;10.704;2023-12-22T03:20:21;91248.50;;;4.79;99.71
52735;BME280;38631;47.572;10.704;2023-12-22T03:22:46;91262.44;;;4.79;99.24
52735;BME280;38631;47.572;10.704;2023-12-22T03:25:12;91245.16;;;4.87;97.59
52735;BME280;38631;47.572;10.704;2023-12-22T03:27:37;91271.63;;;4.90;97.48
52735;BME280;38631;47.572;10.704;2023-12-22T03:30:03;91273.25;;;4.78;99.17
52735;BME280;38631;47.572;10.704;2023-12-22T03:32:29;91287.25;;;4.87;98.41
52735;BME280;38631;47.572;10.704;2023-12-22T03:34:55;91291.25;;;4.84;98.11
52735;BME280;38631;47.572;10.704;2023-12-22T03:37:20;91314.97;;;4.70;99.90
52735;BME280;38631;47.572;10.704;2023-12-22T03:39:46;91266.88;;;4.70;98.40
52735;BME280;38631;47.572;10.704;2023-12-22T03:42:11;91298.66;;;4.60;99.50
52735;BME280;38631;47.572;10.704;2023-12-22T03:44:36;91314.66;;;4.49;100.00
52735;BME280;38631;47.572;10.704;2023-12-22T03:47:02;91316.94;;;4.28;100.00
52735;BME280;38631;47.572;10.704;2023-12-22T03:49:27;91331.88;;;4.19;100.00
52735;BME280;38631;47.572;10.704;2023-12-22T03:51:53;91352.50;;;4.12;100.00
52735;BME280;38631;47.572;10.704;2023-12-22T03:54:18;91354.81;;;4.14;100.00
52735;BME280;38631;47.572;10.704;2023-12-22T03:56:44;91349.47;;;4.19;100.00
52735;BME280;38631;47.572;10.704;2023-12-22T03:59:09;91348.63;;;3.96;100.00
52735;BME280;38631;47.572;10.704;2023-12-22T04:01:34;91351.47;;;3.99;100.00
52735;BME280;38631;47.572;10.704;2023-12-22T04:04:00;91343.19;;;3.92;100.00
52735;BME280;38631;47.572;10.704;2023-12-22T04:06:25;91351.47;;;3.99;100.00
52735;BME280;38631;47.572;10.704;2023-12-22T04:08:52;91357.66;;;4.03;100.00
52735;BME280;38631;47.572;10.704;2023-12-22T04:11:17;91366.34;;;4.04;100.00
52735;BME280;38631;47.572;10.704;2023-12-22T04:13:43;91347.84;;;3.95;100.00
52735;BME280;38631;47.572;10.704;2023-12-22T04:16:08;91383.53;;;3.96;100.00
52735;BME280;38631;47.572;10.704;2023-12-22T04:18:33;91387.38;;;3.30;100.00
52735;BME280;38631;47.572;10.704;2023-12-22T04:20:59;91388.31;;;3.20;100.00
52735;BME280;38631;47.572;10.704;2023-12-22T04:23:24;91388.50;;;2.91;100.00
52735;BME280;38631;47.572;10.704;2023-12-22T04:25:50;91377.47;;;2.94;100.00
52735;BME280;38631;47.572;10.704;2023-12-22T04:28:15;91363.78;;;2.97;100.00
52735;BME280;38631;47.572;10.704;2023-12-22T04:30:41;91380.63;;;3.10;100.00
52735;BME280;38631;47.572;10.704;2023-12-22T04:33:06;91397.03;;;3.48;100.00
52735;BME280;38631;47.572;10.704;2023-12-22T04:35:32;91389.00;;;3.72;100.00
52735;BME280;38631;47.572;10.704;2023-12-22T04:37:57;91398.94;;;3.89;100.00
52735;BME280;38631;47.572;10.704;2023-12-22T04:40:22;91385.19;;;3.78;100.00
52735;BME280;38631;47.572;10.704;2023-12-22T04:42:48;91387.94;;;3.87;100.00
52735;BME280;38631;47.572;10.704;2023-12-22T04:45:14;91386.75;;;3.93;100.00
52735;BME280;38631;47.572;10.704;2023-12-22T04:47:39;91392.59;;;4.04;100.00
52735;BME280;38631;47.572;10.704;2023-12-22T04:50:05;91384.25;;;4.02;100.00
52735;BME280;38631;47.572;10.704;2023-12-22T04:52:30;91402.22;;;4.08;100.00
52735;BME280;38631;47.572;10.704;2023-12-22T04:54:55;91414.09;;;4.06;100.00
52735;BME280;38631;47.572;10.704;2023-12-22T04:57:21;91438.81;;;4.05;100.00
52735;BME280;38631;47.572;10.704;2023-12-22T04:59:47;91436.47;;;4.17;99.94
52735;BME280;38631;47.572;10.704;2023-12-22T05:02:14;91457.19;;;4.19;100.00
52735;BME280;38631;47.572;10.704;2023-12-22T05:04:39;91449.13;;;4.15;100.00
52735;BME280;38631;47.572;10.704;2023-12-22T05:07:04;91428.19;;;4.10;100.00
52735;BME280;38631;47.572;10.704;2023-12-22T05:09:33;91452.13;;;4.08;99.62
52735;BME280;38631;47.572;10.704;2023-12-22T05:11:59;91459.63;;;4.29;98.24
52735;BME280;38631;47.572;10.704;2023-12-22T05:14:24;91448.25;;;4.20;98.42
52735;BME280;38631;47.572;10.704;2023-12-22T05:16:50;91431.09;;;4.08;98.78
52735;BME280;38631;47.572;10.704;2023-12-22T05:19:20;91441.13;;;4.20;95.83
52735;BME280;38631;47.572;10.704;2023-12-22T05:21:45;91445.53;;;4.25;95.58
52735;BME280;38631;47.572;10.704;2023-12-22T05:24:10;91432.19;;;4.07;95.88
52735;BME280;38631;47.572;10.704;2023-12-22T05:26:36;91437.81;;;4.01;96.66
52735;BME280;38631;47.572;10.704;2023-12-22T05:29:01;91413.81;;;4.07;96.51
52735;BME280;38631;47.572;10.704;2023-12-22T05:31:27;91414.88;;;4.34;93.82
52735;BME280;38631;47.572;10.704;2023-12-22T05:33:53;91409.88;;;4.19;93.62
52735;BME280;38631;47.572;10.704;2023-12-22T05:36:18;91430.81;;;4.24;94.67
52735;BME280;38631;47.572;10.704;2023-12-22T05:38:43;91430.81;;;4.24;94.66
52735;BME280;38631;47.572;10.704;2023-12-22T05:41:09;91442.88;;;4.25;95.17
52735;BME280;38631;47.572;10.704;2023-12-22T05:43:34;91435.78;;;4.25;95.42
52735;BME280;38631;47.572;10.704;2023-12-22T05:46:00;91428.97;;;4.24;95.80
52735;BME280;38631;47.572;10.704;2023-12-22T05:48:26;91435.78;;;4.25;94.49
52735;BME280;38631;47.572;10.704;2023-12-22T05:50:53;91424.78;;;4.23;94.90
52735;BME280;38631;47.572;10.704;2023-12-22T05:53:18;91438.69;;;4.24;94.42
52735;BME280;38631;47.572;10.704;2023-12-22T05:55:44;91439.88;;;4.31;92.79
52735;BME280;38631;47.572;10.704;2023-12-22T05:58:09;91448.22;;;4.33;92.88
52735;BME280;38631;47.572;10.704;2023-12-22T06:00:34;91458.16;;;4.23;94.64
52735;BME280;38631;47.572;10.704;2023-12-22T06:03:01;91449.50;;;4.22;93.74
52735;BME280;38631;47.572;10.704;2023-12-22T06:05:26;91438.63;;;4.29;92.63
52735;BME280;38631;47.572;10.704;2023-12-22T06:07:51;91426.03;;;4.26;92.99
52735;BME280;38631;47.572;10.704;2023-12-22T06:10:18;91454.06;;;4.44;91.41
52735;BME280;38631;47.572;10.704;2023-12-22T06:12:44;91438.88;;;4.41;91.43
52735;BME280;38631;47.572;10.704;2023-12-22T06:15:09;91413.41;;;4.42;91.86
52735;BME280;38631;47.572;10.704;2023-12-22T06:17:35;91467.50;;;4.43;92.15
52735;BME280;38631;47.572;10.704;2023-12-22T06:20:00;91462.84;;;4.40;92.59
52735;BME280;38631;47.572;10.704;2023-12-22T06:22:26;91456.00;;;4.52;90.97
52735;BME280;38631;47.572;10.704;2023-12-22T06:24:51;91476.25;;;4.52;90.79
52735;BME280;38631;47.572;10.704;2023-12-22T06:27:17;91475.69;;;4.55;91.39
52735;BME280;38631;47.572;10.704;2023-12-22T06:29:42;91482.97;;;4.58;90.83
52735;BME280;38631;47.572;10.704;2023-12-22T06:32:07;91478.91;;;4.52;90.91
52735;BME280;38631;47.572;10.704;2023-12-22T06:34:33;91481.53;;;4.52;92.25
52735;BME280;38631;47.572;10.704;2023-12-22T06:36:58;91498.25;;;4.56;90.67
52735;BME280;38631;47.572;10.704;2023-12-22T06:39:24;91517.13;;;4.58;91.72
52735;BME280;38631;47.572;10.704;2023-12-22T06:41:49;91530.88;;;4.41;96.08
52735;BME280;38631;47.572;10.704;2023-12-22T06:44:15;91527.47;;;4.27;97.92
52735;BME280;38631;47.572;10.704;2023-12-22T06:46:40;91526.06;;;4.16;100.00
52735;BME280;38631;47.572;10.704;2023-12-22T06:49:07;91509.63;;;4.10;100.00
52735;BME280;38631;47.572;10.704;2023-12-22T06:51:32;91508.09;;;4.09;99.13
52735;BME280;38631;47.572;10.704;2023-12-22T06:54:01;91520.72;;;4.07;99.70
52735;BME280;38631;47.572;10.704;2023-12-22T06:56:29;91517.50;;;4.10;96.55
52735;BME280;38631;47.572;10.704;2023-12-22T06:58:56;91514.13;;;4.09;96.43
52735;BME280;38631;47.572;10.704;2023-12-22T07:01:25;91516.16;;;4.13;97.29
52735;BME280;38631;47.572;10.704;2023-12-22T07:03:51;91518.47;;;4.00;96.80
52735;BME280;38631;47.572;10.704;2023-12-22T07:06:22;91542.09;;;4.00;99.66
52735;BME280;38631;47.572;10.704;2023-12-22T07:11:43;91548.22;;;3.63;100.00
52735;BME280;38631;47.572;10.704;2023-12-22T07:14:09;91554.91;;;3.55;100.00
52735;BME280;38631;47.572;10.704;2023-12-22T07:16:35;91528.03;;;3.44;100.00
52735;BME280;38631;47.572;10.704;2023-12-22T07:19:01;91536.56;;;3.36;100.00
52735;BME280;38631;47.572;10.704;2023-12-22T07:21:26;91545.75;;;3.53;100.00
52735;BME280;38631;47.572;10.704;2023-12-22T07:23:52;91555.66;;;3.56;100.00
52735;BME280;38631;47.572;10.704;2023-12-22T07:26:17;91558.22;;;3.61;100.00
52735;BME280;38631;47.572;10.704;2023-12-22T07:28:43;91529.66;;;3.59;100.00
52735;BME280;38631;47.572;10.704;2023-12-22T07:31:08;91539.16;;;3.55;100.00
52735;BME280;38631;47.572;10.704;2023-12-22T07:33:33;91531.50;;;3.59;100.00
52735;BME280;38631;47.572;10.704;2023-12-22T07:35:59;91533.63;;;3.57;100.00
52735;BME280;38631;47.572;10.704;2023-12-22T07:38:24;91537.22;;;3.61;100.00
52735;BME280;38631;47.572;10.704;2023-12-22T07:40:49;91533.16;;;3.68;100.00
52735;BME280;38631;47.572;10.704;2023-12-22T07:43:15;91545.31;;;3.64;100.00
52735;BME280;38631;47.572;10.704;2023-12-22T07:45:41;91538.03;;;3.61;100.00
52735;BME280;38631;47.572;10.704;2023-12-22T07:48:06;91522.75;;;3.63;100.00
52735;BME280;38631;47.572;10.704;2023-12-22T07:50:32;91539.53;;;3.81;100.00
52735;BME280;38631;47.572;10.704;2023-12-22T07:52:58;91543.53;;;3.79;100.00
52735;BME280;38631;47.572;10.704;2023-12-22T07:55:24;91537.63;;;3.68;100.00
52735;BME280;38631;47.572;10.704;2023-12-22T07:57:50;91554.38;;;3.72;100.00
52735;BME280;38631;47.572;10.704;2023-12-22T08:00:16;91551.09;;;3.80;100.00
52735;BME280;38631;47.572;10.704;2023-12-22T08:02:41;91551.78;;;3.86;100.00
52735;BME280;38631;47.572;10.704;2023-12-22T08:05:08;91571.84;;;3.96;100.00
52735;BME280;38631;47.572;10.704;2023-12-22T08:07:33;91564.38;;;3.89;100.00
52735;BME280;38631;47.572;10.704;2023-12-22T08:09:59;91562.69;;;3.93;100.00
52735;BME280;38631;47.572;10.704;2023-12-22T08:12:24;91583.72;;;3.93;100.00
52735;BME280;38631;47.572;10.704;2023-12-22T08:14:50;91582.44;;;3.90;100.00
52735;BME280;38631;47.572;10.704;2023-12-22T08:17:15;91601.69;;;3.86;100.00
52735;BME280;38631;47.572;10.704;2023-12-22T08:19:40;91606.22;;;3.99;100.00
52735;BME280;38631;47.572;10.704;2023-12-22T08:22:09;91603.53;;;3.85;100.00
52735;BME280;38631;47.572;10.704;2023-12-22T08:24:35;91606.38;;;3.89;100.00
52735;BME280;38631;47.572;10.704;2023-12-22T08:27:00;91635.19;;;3.94;100.00
52735;BME280;38631;47.572;10.704;2023-12-22T08:29:25;91629.84;;;3.99;100.00
52735;BME280;38631;47.572;10.704;2023-12-22T08:31:51;91629.84;;;3.99;99.91
52735;BME280;38631;47.572;10.704;2023-12-22T08:34:17;91643.31;;;4.11;98.08
52735;BME280;38631;47.572;10.704;2023-12-22T08:36:42;91627.69;;;4.20;98.28
52735;BME280;38631;47.572;10.704;2023-12-22T08:39:08;91609.09;;;4.17;98.09
52735;BME280;38631;47.572;10.704;2023-12-22T08:41:33;91626.50;;;4.13;99.47
52735;BME280;38631;47.572;10.704;2023-12-22T08:44:05;91620.53;;;4.07;100.00
52735;BME280;38631;47.572;10.704;2023-12-22T08:46:31;91631.16;;;4.16;98.81
52735;BME280;38631;47.572;10.704;2023-12-22T08:48:57;91622.41;;;4.20;96.95
52735;BME280;38631;47.572;10.704;2023-12-22T08:51:22;91609.69;;;4.27;98.13
52735;BME280;38631;47.572;10.704;2023-12-22T08:53:48;91599.22;;;4.08;99.51
52735;BME280;38631;47.572;10.704;2023-12-22T08:56:15;91621.91;;;4.04;98.84
52735;BME280;38631;47.572;10.704;2023-12-22T08:58:42;91622.16;;;4.03;99.14
52735;BME280;38631;47.572;10.704;2023-12-22T09:01:07;91614.59;;;4.01;99.86
52735;BME280;38631;47.572;10.704;2023-12-22T09:03:33;91620.25;;;4.08;97.35
52735;BME280;38631;47.572;10.704;2023-12-22T09:05:59;91648.66;;;4.06;99.09
52735;BME280;38631;47.572;10.704;2023-12-22T09:08:24;91656.25;;;4.08;99.68
52735;BME280;38631;47.572;10.704;2023-12-22T09:10:50;91618.44;;;3.90;100.00
52735;BME280;38631;47.572;10.704;2023-12-22T09:13:16;91649.78;;;4.00;100.00
52735;BME280;38631;47.572;10.704;2023-12-22T09:15:42;91641.78;;;3.92;100.00
52735;BME280;38631;47.572;10.704;2023-12-22T09:18:07;91643.63;;;3.91;100.00
52735;BME280;38631;47.572;10.704;2023-12-22T09:20:33;91609.00;;;3.89;100.00
52735;BME280;38631;47.572;10.704;2023-12-22T09:22:58;91634.59;;;3.97;100.00
52735;BME280;38631;47.572;10.704;2023-12-22T09:25:24;91636.13;;;3.84;100.00
52735;BME280;38631;47.572;10.704;2023-12-22T09:27:49;91637.16;;;3.83;100.00
52735;BME280;38631;47.572;10.704;2023-12-22T09:30:16;91635.19;;;3.94;100.00
52735;BME280;38631;47.572;10.704;2023-12-22T09:32:42;91641.78;;;3.92;100.00
52735;BME280;38631;47.572;10.704;2023-12-22T09:35:07;91633.53;;;3.98;100.00
52735;BME280;38631;47.572;10.704;2023-12-22T09:37:34;91641.34;;;4.03;100.00
52735;BME280;38631;47.572;10.704;2023-12-22T09:39:59;91641.13;;;4.00;100.00
52735;BME280;38631;47.572;10.704;2023-12-22T09:42:25;91644.97;;;4.07;99.77
52735;BME280;38631;47.572;10.704;2023-12-22T09:44:53;91631.31;;;4.05;100.00
52735;BME280;38631;47.572;10.704;2023-12-22T09:47:19;91611.00;;;4.11;100.00
52735;BME280;38631;47.572;10.704;2023-12-22T09:49:46;91614.13;;;4.13;100.00
52735;BME280;38631;47.572;10.704;2023-12-22T09:52:13;91601.50;;;4.15;99.65
52735;BME280;38631;47.572;10.704;2023-12-22T09:54:39;91609.09;;;4.17;98.92
52735;BME280;38631;47.572;10.704;2023-12-22T09:57:06;91608.03;;;3.99;100.00
52735;BME280;38631;47.572;10.704;2023-12-22T09:59:32;91607.84;;;3.95;100.00
52735;BME280;38631;47.572;10.704;2023-12-22T10:01:59;91607.50;;;4.02;100.00
52735;BME280;38631;47.572;10.704;2023-12-22T10:04:27;91605.72;;;3.97;100.00
52735;BME280;38631;47.572;10.704;2023-12-22T10:06:53;91608.63;;;3.96;100.00
52735;BME280;38631;47.572;10.704;2023-12-22T10:09:22;91628.78;;;4.00;100.00
52735;BME280;38631;47.572;10.704;2023-12-22T10:11:49;91636.00;;;4.08;100.00
52735;BME280;38631;47.572;10.704;2023-12-22T10:14:17;91630.47;;;4.10;100.00
52735;BME280;38631;47.572;10.704;2023-12-22T10:16:48;91640.91;;;4.15;99.29
52735;BME280;38631;47.572;10.704;2023-12-22T10:19:15;91617.84;;;4.12;99.27
52735;BME280;38631;47.572;10.704;2023-12-22T10:21:41;91639.19;;;4.24;97.37
52735;BME280;38631;47.572;10.704;2023-12-22T10:24:07;91634.69;;;4.25;98.27
52735;BME280;38631;47.572;10.704;2023-12-22T10:26:33;91628.38;;;4.26;97.98
52735;BME280;38631;47.572;10.704;2023-12-22T10:28:58;91616.59;;;4.23;98.33
52735;BME280;38631;47.572;10.704;2023-12-22T10:31:23;91629.72;;;4.23;98.21
52735;BME280;38631;47.572;10.704;2023-12-22T10:33:50;91615.22;;;4.26;98.33
52735;BME280;38631;47.572;10.704;2023-12-22T10:36:17;91609.41;;;4.29;97.50
52735;BME280;38631;47.572;10.704;2023-12-22T10:38:44;91623.03;;;4.31;98.53
52735;BME280;38631;47.572;10.704;2023-12-22T10:41:10;91617.94;;;4.21;99.90
52735;BME280;38631;47.572;10.704;2023-12-22T10:43:39;91599.72;;;4.10;100.00
52735;BME280;38631;47.572;10.704;2023-12-22T10:46:05;91614.59;;;4.01;100.00
52735;BME280;38631;47.572;10.704;2023-12-22T10:48:31;91629.69;;;4.09;100.00
52735;BME280;38631;47.572;10.704;2023-12-22T10:50:58;91616.06;;;4.07;100.00
52735;BME280;38631;47.572;10.704;2023-12-22T10:53:24;91629.00;;;4.04;100.00
52735;BME280;38631;47.572;10.704;2023-12-22T10:55:50;91622.31;;;4.11;100.00
52735;BME280;38631;47.572;10.704;2023-12-22T10:58:16;91632.09;;;4.06;100.00
52735;BME280;38631;47.572;10.704;2023-12-22T11:00:45;91638.34;;;4.10;100.00
52735;BME280;38631;47.572;10.704;2023-12-22T11:03:13;91626.84;;;4.06;100.00
52735;BME280;38631;47.572;10.704;2023-12-22T11:05:45;91631.91;;;4.02;100.00
52735;BME280;38631;47.572;10.704;2023-12-22T11:08:11;91635.03;;;4.04;100.00
52735;BME280;38631;47.572;10.704;2023-12-22T11:10:41;91637.16;;;4.02;100.00
52735;BME280;38631;47.572;10.704;2023-12-22T11:13:08;91612.94;;;4.05;100.00
52735;BME280;38631;47.572;10.704;2023-12-22T11:15:34;91637.59;;;4.23;100.00
52735;BME280;38631;47.572;10.704;2023-12-22T11:18:01;91624.69;;;4.27;100.00
52735;BME280;38631;47.572;10.704;2023-12-22T11:20:27;91620.06;;;4.19;100.00
52735;BME280;38631;47.572;10.704;2023-12-22T11:22:57;91601.31;;;4.25;99.60
52735;BME280;38631;47.572;10.704;2023-12-22T11:25:25;91610.69;;;4.31;99.35
52735;BME280;38631;47.572;10.704;2023-12-22T11:27:52;91589.53;;;4.23;100.00
52735;BME280;38631;47.572;10.704;2023-12-22T11:30:18;91591.03;;;4.29;99.07
52735;BME280;38631;47.572;10.704;2023-12-22T11:32:45;91598.50;;;4.22;100.00
52735;BME280;38631;47.572;10.704;2023-12-22T11:35:11;91591.75;;;4.16;100.00
52735;BME280;38631;47.572;10.704;2023-12-22T11:37:37;91591.66;;;4.21;100.00
52735;BME280;38631;47.572;10.704;2023-12-22T11:40:03;91589.03;;;4.07;100.00
52735;BME280;38631;47.572;10.704;2023-12-22T11:42:31;91589.59;;;4.04;100.00
52735;BME280;38631;47.572;10.704;2023-12-22T11:44:59;91582.78;;;4.03;100.00
52735;BME280;38631;47.572;10.704;2023-12-22T11:47:27;91588.72;;;4.08;100.00
52735;BME280;38631;47.572;10.704;2023-12-22T11:49:53;91578.59;;;4.02;100.00
52735;BME280;38631;47.572;10.704;2023-12-22T11:52:25;91581.06;;;4.12;100.00
52735;BME280;38631;47.572;10.704;2023-12-22T11:54:52;91581.72;;;4.04;100.00
52735;BME280;38631;47.572;10.704;2023-12-22T12:00:07;91549.81;;;4.10;100.00
52735;BME280;38631;47.572;10.704;2023-12-22T12:02:35;91528.78;;;4.10;100.00
52735;BME280;38631;47.572;10.704;2023-12-22T12:05:01;91533.00;;;4.11;100.00
52735;BME280;38631;47.572;10.704;2023-12-22T12:07:47;91540.78;;;4.17;100.00
52735;BME280;38631;47.572;10.704;2023-12-22T12:13:11;91532.22;;;4.25;100.00
52735;BME280;38631;47.572;10.704;2023-12-22T12:15:38;91517.41;;;4.15;100.00
52735;BME280;38631;47.572;10.704;2023-12-22T12:18:05;91511.78;;;4.22;100.00
52735;BME280;38631;47.572;10.704;2023-12-22T12:20:33;91509.63;;;4.24;100.00
52735;BME280;38631;47.572;10.704;2023-12-22T12:23:00;91495.72;;;4.23;100.00
52735;BME280;38631;47.572;10.704;2023-12-22T12:25:30;91501.28;;;4.22;100.00
52735;BME280;38631;47.572;10.704;2023-12-22T12:28:06;91511.88;;;4.30;100.00
52735;BME280;38631;47.572;10.704;2023-12-22T12:30:32;91494.75;;;4.33;100.00
52735;BME280;38631;47.572;10.704;2023-12-22T12:35:33;91512.75;;;4.26;100.00
52735;BME280;38631;47.572;10.704;2023-12-22T12:37:59;91497.19;;;4.16;100.00
52735;BME280;38631;47.572;10.704;2023-12-22T12:40:27;91524.06;;;4.26;100.00
52735;BME280;38631;47.572;10.704;2023-12-22T12:42:55;91507.81;;;4.24;100.00
52735;BME280;38631;47.572;10.704;2023-12-22T12:45:25;91512.47;;;4.27;100.00
52735;BME280;38631;47.572;10.704;2023-12-22T12:48:00;91492.91;;;4.20;100.00
52735;BME280;38631;47.572;10.704;2023-12-22T12:50:26;91510.13;;;4.26;100.00
52735;BME280;38631;47.572;10.704;2023-12-22T12:52:53;91498.25;;;4.15;100.00
52735;BME280;38631;47.572;10.704;2023-12-22T12:55:20;91496.22;;;4.11;100.00
52735;BME280;38631;47.572;10.704;2023-12-22T12:57:55;91499.31;;;4.14;100.00
52735;BME280;38631;47.572;10.704;2023-12-22T13:02:49;91476.25;;;4.10;100.00